createdAt,value
2017-11-13T00:01:18.587Z,73.20
2017-11-13T00:03:47.402Z,74.00
2017-11-13T00:06:15.473Z,73.20
2017-11-13T00:08:43.522Z,75.60
2017-11-13T00:11:11.966Z,76.30
2017-11-13T00:13:40.035Z,74.40
2017-11-13T00:18:37.432Z,74.30
2017-11-13T00:21:05.477Z,76.00
2017-11-13T00:23:33.526Z,75.30
2017-11-13T00:26:01.598Z,74.20
2017-11-13T00:28:30.439Z,74.70
2017-11-13T00:30:58.481Z,74.60
2017-11-13T00:33:26.534Z,73.80
2017-11-13T00:35:54.998Z,74.00
2017-11-13T00:38:23.067Z,73.50
2017-11-13T00:40:51.530Z,74.90
2017-11-13T00:43:20.058Z,73.00
2017-11-13T00:45:48.826Z,74.90
2017-11-13T00:48:18.021Z,72.80
2017-11-13T00:50:46.112Z,74.00
2017-11-13T00:53:14.194Z,74.80
2017-11-13T00:55:42.250Z,75.20
2017-11-13T00:58:10.303Z,75.60
2017-11-13T01:00:39.511Z,76.00
2017-11-13T01:03:07.578Z,77.10
2017-11-13T01:05:35.647Z,77.20
2017-11-13T01:08:03.702Z,76.60
2017-11-13T01:10:32.531Z,76.70
2017-11-13T01:13:00.618Z,76.00
2017-11-13T01:15:28.711Z,76.90
2017-11-13T01:17:56.766Z,77.40
2017-11-13T01:20:24.826Z,76.00
2017-11-13T01:22:52.902Z,74.90
2017-11-13T01:25:20.950Z,75.10
2017-11-13T01:27:49.019Z,76.00
2017-11-13T01:30:18.586Z,76.50
2017-11-13T01:32:47.410Z,76.00
2017-11-13T01:35:15.478Z,75.10
2017-11-13T01:37:43.527Z,76.70
2017-11-13T01:40:12.358Z,76.80
2017-11-13T01:42:40.411Z,76.20
2017-11-13T01:45:08.486Z,75.90
2017-11-13T01:47:36.539Z,76.70
2017-11-13T01:50:05.358Z,75.90
2017-11-13T01:52:33.417Z,77.10
2017-11-13T01:55:02.970Z,76.00
2017-11-13T01:57:31.043Z,76.20
2017-11-13T01:59:59.098Z,76.20
2017-11-13T02:02:27.542Z,77.10
2017-11-13T02:04:56.006Z,77.30
2017-11-13T02:07:25.665Z,76.30
2017-11-13T02:09:54.447Z,77.20
2017-11-13T02:12:22.490Z,76.60
2017-11-13T02:14:50.558Z,76.70
2017-11-13T02:17:18.606Z,77.10
2017-11-13T02:19:46.651Z,78.00
2017-11-13T02:22:14.714Z,77.20
2017-11-13T02:24:42.763Z,77.70
2017-11-13T02:27:10.811Z,78.90
2017-11-13T02:29:39.642Z,77.00
2017-11-13T02:32:08.471Z,79.40
2017-11-13T02:34:37.297Z,79.80
2017-11-13T02:37:05.344Z,79.70
2017-11-13T02:39:34.186Z,79.10
2017-11-13T02:42:02.235Z,79.40
2017-11-13T02:44:30.287Z,79.50
2017-11-13T02:46:58.363Z,78.90
2017-11-13T02:49:26.414Z,77.90
2017-11-13T02:51:55.226Z,78.70
2017-11-13T02:54:23.319Z,78.60
2017-11-13T02:56:51.366Z,79.90
2017-11-13T02:59:19.443Z,79.80
2017-11-13T03:01:47.487Z,80.00
2017-11-13T03:04:16.303Z,81.10
2017-11-13T03:06:44.362Z,80.50
2017-11-13T03:09:12.426Z,80.80
2017-11-13T03:11:41.238Z,82.00
2017-11-13T03:14:09.282Z,80.30
2017-11-13T03:19:07.407Z,83.30
2017-11-13T03:21:35.467Z,83.30
2017-11-13T03:24:03.529Z,83.60
2017-11-13T03:31:30.219Z,82.50
2017-11-13T03:33:59.403Z,83.90
2017-11-13T03:36:27.468Z,85.20
2017-11-13T03:38:57.018Z,84.80
2017-11-13T03:41:25.092Z,84.10
2017-11-13T03:43:53.902Z,85.30
2017-11-13T03:46:23.467Z,83.90
2017-11-13T03:48:51.530Z,84.70
2017-11-13T03:51:19.584Z,85.00
2017-11-13T03:53:48.039Z,84.80
2017-11-13T03:56:16.104Z,85.80
2017-11-13T03:58:44.154Z,84.50
2017-11-13T04:01:12.224Z,86.00
2017-11-13T04:03:40.684Z,84.70
2017-11-13T04:06:09.142Z,84.20
2017-11-13T04:08:37.606Z,84.80
2017-11-13T04:11:06.430Z,86.10
2017-11-13T04:13:34.894Z,83.60
2017-11-13T04:16:03.347Z,85.50
2017-11-13T04:18:31.428Z,86.50
2017-11-13T04:20:59.499Z,87.00
2017-11-13T04:23:27.950Z,87.90
2017-11-13T04:25:56.408Z,88.90
2017-11-13T04:28:24.487Z,86.00
2017-11-13T04:30:52.549Z,86.50
2017-11-13T04:33:21.369Z,87.20
2017-11-13T04:35:50.953Z,85.50
2017-11-13T04:38:19.855Z,84.80
2017-11-13T04:40:48.638Z,83.80
2017-11-13T04:43:16.705Z,83.30
2017-11-13T04:45:45.529Z,83.20
2017-11-13T04:48:13.598Z,83.40
2017-11-13T04:50:41.662Z,83.60
2017-11-13T04:53:09.715Z,82.20
2017-11-13T04:55:38.943Z,83.30
2017-11-13T04:58:06.998Z,83.60
2017-11-13T05:03:04.393Z,82.30
2017-11-13T05:05:33.223Z,83.80
2017-11-13T05:08:01.290Z,82.90
2017-11-13T05:10:29.750Z,84.10
2017-11-13T05:12:58.942Z,84.10
2017-11-13T05:15:27.418Z,84.10
2017-11-13T05:17:56.253Z,81.80
2017-11-13T05:20:24.297Z,84.20
2017-11-13T05:22:53.140Z,83.00
2017-11-13T05:25:21.199Z,82.70
2017-11-13T05:27:49.278Z,82.00
2017-11-13T05:30:18.484Z,81.70
2017-11-13T05:32:46.532Z,82.10
2017-11-13T05:35:15.003Z,84.00
2017-11-13T05:37:43.067Z,83.70
2017-11-13T05:40:12.290Z,86.90
2017-11-13T05:42:40.372Z,85.00
2017-11-13T05:45:08.418Z,82.10
2017-11-13T05:47:36.496Z,81.20
2017-11-13T05:50:05.319Z,81.40
2017-11-13T05:52:33.384Z,81.10
2017-11-13T05:55:02.958Z,80.40
2017-11-13T05:57:31.042Z,83.60
2017-11-13T05:59:59.116Z,83.30
2017-11-13T06:02:27.150Z,82.50
2017-11-13T06:04:56.731Z,83.10
2017-11-13T06:07:26.299Z,83.40
2017-11-13T06:09:54.378Z,82.80
2017-11-13T06:12:22.434Z,82.00
2017-11-13T06:14:50.502Z,81.20
2017-11-13T06:17:18.546Z,81.70
2017-11-13T06:19:47.375Z,80.00
2017-11-13T06:22:15.819Z,79.10
2017-11-13T06:24:44.647Z,80.30
2017-11-13T06:27:12.834Z,81.50
2017-11-13T06:29:41.623Z,82.20
2017-11-13T06:32:09.700Z,78.80
2017-11-13T06:34:38.159Z,78.40
2017-11-13T06:37:06.222Z,79.10
2017-11-13T06:39:34.286Z,78.20
2017-11-13T06:42:02.750Z,79.40
2017-11-13T06:44:31.577Z,78.00
2017-11-13T06:46:59.653Z,78.00
2017-11-13T06:49:28.105Z,77.50
2017-11-13T06:51:56.199Z,77.10
2017-11-13T06:54:24.274Z,77.90
2017-11-13T06:56:52.335Z,77.80
2017-11-13T06:59:20.398Z,76.50
2017-11-13T07:01:48.465Z,76.90
2017-11-13T07:04:16.543Z,76.70
2017-11-13T07:06:44.598Z,77.30
2017-11-13T07:09:12.667Z,77.10
2017-11-13T07:11:41.530Z,78.90
2017-11-13T07:14:09.562Z,78.00
2017-11-13T07:16:38.750Z,78.30
2017-11-13T07:19:06.832Z,77.20
2017-11-13T07:21:34.878Z,76.80
2017-11-13T07:24:03.351Z,76.30
2017-11-13T07:29:00.748Z,75.80
2017-11-13T07:31:29.571Z,76.00
2017-11-13T07:33:57.634Z,71.60
2017-11-13T07:36:25.686Z,68.70
2017-11-13T07:38:53.729Z,65.30
2017-11-13T07:41:22.551Z,65.30
2017-11-13T07:43:50.598Z,64.20
2017-11-13T07:46:19.142Z,59.60
2017-11-13T07:48:47.221Z,55.00
2017-11-13T07:51:15.270Z,54.20
2017-11-13T07:53:44.462Z,51.30
2017-11-13T07:56:12.518Z,48.90
2017-11-13T07:58:40.574Z,47.80
2017-11-13T08:01:08.651Z,46.30
2017-11-13T08:03:36.694Z,46.50
2017-11-13T08:06:06.255Z,46.50
2017-11-13T08:08:34.707Z,45.20
2017-11-13T08:11:02.758Z,42.10
2017-11-13T08:13:31.591Z,41.70
2017-11-13T08:15:59.659Z,40.10
2017-11-13T08:18:27.723Z,40.20
2017-11-13T08:20:55.775Z,36.60
2017-11-13T08:23:23.850Z,36.90
2017-11-13T08:25:51.899Z,36.20
2017-11-13T08:30:50.792Z,34.50
2017-11-13T08:33:19.235Z,35.00
2017-11-13T08:35:47.302Z,34.50
2017-11-13T08:38:15.389Z,38.00
2017-11-13T08:40:43.431Z,45.00
2017-11-13T08:43:11.487Z,47.90
2017-11-13T08:45:41.106Z,48.00
2017-11-13T08:48:09.583Z,51.80
2017-11-13T08:50:37.635Z,52.50
2017-11-13T08:53:06.458Z,51.40
2017-11-13T08:55:34.502Z,47.90
2017-11-13T08:58:03.330Z,48.10
2017-11-13T09:00:31.398Z,48.70
2017-11-13T09:02:59.450Z,44.70
2017-11-13T09:05:27.503Z,41.90
2017-11-13T09:07:56.339Z,44.20
2017-11-13T09:10:24.396Z,48.40
2017-11-13T09:12:52.839Z,49.70
2017-11-13T09:15:21.675Z,44.00
2017-11-13T09:17:49.721Z,41.20
2017-11-13T09:20:17.774Z,40.70
2017-11-13T09:22:46.230Z,42.00
2017-11-13T09:25:14.294Z,46.00
2017-11-13T09:27:43.489Z,49.10
2017-11-13T09:30:12.319Z,47.70
2017-11-13T09:32:41.150Z,48.70
2017-11-13T09:35:09.212Z,51.30
2017-11-13T09:37:37.318Z,51.30
2017-11-13T09:40:05.363Z,52.00
2017-11-13T09:42:33.410Z,50.20
2017-11-13T09:47:30.787Z,51.10
2017-11-13T09:49:58.846Z,49.80
2017-11-13T09:54:56.210Z,53.70
2017-11-13T09:57:25.022Z,55.80
2017-11-13T09:59:53.091Z,51.70
2017-11-13T10:02:21.130Z,52.60
2017-11-13T10:07:18.985Z,47.80
2017-11-13T10:09:47.435Z,43.60
2017-11-13T10:12:15.498Z,43.90
2017-11-13T10:14:44.946Z,44.70
2017-11-13T10:17:13.390Z,42.70
2017-11-13T10:19:41.462Z,43.70
2017-11-13T10:22:09.506Z,46.20
2017-11-13T10:24:38.330Z,48.40
2017-11-13T10:27:06.395Z,46.40
2017-11-13T10:29:34.450Z,50.20
2017-11-13T10:32:02.510Z,49.40
2017-11-13T10:34:31.324Z,51.70
2017-11-13T10:36:59.382Z,51.40
2017-11-13T10:39:27.446Z,53.40
2017-11-13T10:41:56.259Z,52.30
2017-11-13T10:44:24.356Z,53.60
2017-11-13T10:46:53.144Z,53.10
2017-11-13T10:49:21.212Z,54.60
2017-11-13T10:51:49.258Z,57.20
2017-11-13T10:54:17.302Z,52.50
2017-11-13T10:56:46.125Z,54.40
2017-11-13T10:59:14.174Z,52.70
2017-11-13T11:01:43.001Z,54.20
2017-11-13T11:04:11.047Z,51.70
2017-11-13T11:06:39.500Z,51.80
2017-11-13T11:09:07.559Z,50.20
2017-11-13T11:11:36.002Z,50.90
2017-11-13T11:14:06.239Z,50.50
2017-11-13T11:16:41.371Z,45.90
2017-11-13T11:19:26.144Z,45.70
2017-11-13T11:21:54.179Z,47.90
2017-11-13T11:24:22.243Z,46.00
2017-11-13T11:26:53.771Z,44.60
2017-11-13T11:29:25.564Z,45.40
2017-11-13T11:32:00.034Z,39.20
2017-11-13T11:34:34.129Z,29.90
2017-11-13T11:37:03.854Z,24.90
2017-11-13T11:39:31.912Z,22.20
2017-11-13T11:41:59.979Z,21.10
2017-11-13T11:44:38.736Z,20.40
2017-11-13T11:47:06.802Z,19.40
2017-11-13T11:49:38.275Z,20.20
2017-11-13T11:52:07.106Z,22.30
2017-11-13T11:57:37.742Z,29.00
2017-11-13T12:00:05.803Z,30.70
2017-11-13T12:02:33.851Z,32.20
2017-11-13T12:05:03.429Z,33.60
2017-11-13T12:07:31.491Z,34.60
2017-11-13T12:10:00.718Z,38.00
2017-11-13T12:12:28.779Z,39.30
2017-11-13T12:14:56.863Z,38.50
2017-11-13T12:17:24.910Z,38.40
2017-11-13T12:19:52.958Z,38.90
2017-11-13T12:22:21.030Z,41.40
2017-11-13T12:24:49.075Z,42.60
2017-11-13T12:27:17.887Z,42.70
2017-11-13T12:29:45.951Z,42.60
2017-11-13T12:32:14.390Z,42.50
2017-11-13T12:34:42.434Z,41.70
2017-11-13T12:37:10.518Z,41.00
2017-11-13T12:39:38.589Z,41.30
2017-11-13T12:42:06.640Z,40.00
2017-11-13T12:44:34.699Z,41.60
2017-11-13T12:47:02.747Z,43.70
2017-11-13T12:49:31.930Z,41.60
2017-11-13T12:54:29.311Z,42.70
2017-11-13T12:56:58.127Z,44.30
2017-11-13T12:59:26.198Z,43.60
2017-11-13T13:01:54.239Z,42.50
2017-11-13T13:04:23.047Z,44.30
2017-11-13T13:06:51.102Z,42.60
2017-11-13T13:09:19.914Z,43.60
2017-11-13T13:11:47.970Z,43.30
2017-11-13T13:14:16.789Z,44.40
2017-11-13T13:16:44.858Z,44.10
2017-11-13T13:19:12.900Z,43.90
2017-11-13T13:24:11.410Z,44.10
2017-11-13T13:26:39.847Z,45.10
2017-11-13T13:29:07.922Z,45.60
2017-11-13T13:31:35.983Z,44.10
2017-11-13T13:34:04.060Z,43.90
2017-11-13T13:36:32.090Z,45.20
2017-11-13T13:39:00.150Z,45.00
2017-11-13T13:41:28.195Z,44.60
2017-11-13T13:43:57.027Z,46.20
2017-11-13T13:46:25.097Z,44.10
2017-11-13T13:48:53.143Z,45.00
2017-11-13T13:51:21.951Z,46.90
2017-11-13T13:53:50.773Z,45.30
2017-11-13T13:56:19.286Z,45.50
2017-11-13T13:58:47.342Z,45.90
2017-11-13T14:01:15.398Z,46.30
2017-11-13T14:03:44.218Z,46.80
2017-11-13T14:06:12.261Z,47.80
2017-11-13T14:08:40.351Z,48.20
2017-11-13T14:11:08.415Z,48.60
2017-11-13T14:13:36.463Z,50.10
2017-11-13T14:16:04.515Z,47.60
2017-11-13T14:18:32.589Z,46.70
2017-11-13T14:21:00.618Z,46.60
2017-11-13T14:23:29.431Z,47.50
2017-11-13T14:25:58.258Z,48.60
2017-11-13T14:28:26.711Z,47.80
2017-11-13T14:30:54.766Z,48.80
2017-11-13T14:33:23.235Z,49.70
2017-11-13T14:35:51.274Z,49.40
2017-11-13T14:38:19.322Z,49.80
2017-11-13T14:40:47.380Z,49.70
2017-11-13T14:43:15.423Z,50.70
2017-11-13T14:45:44.619Z,49.60
2017-11-13T14:48:13.430Z,50.10
2017-11-13T14:50:41.487Z,49.80
2017-11-13T14:53:10.312Z,50.00
2017-11-13T14:55:38.363Z,49.40
2017-11-13T14:58:06.424Z,49.50
2017-11-13T15:00:34.870Z,49.40
2017-11-13T15:03:02.946Z,49.50
2017-11-13T15:05:31.003Z,48.90
2017-11-13T15:07:59.060Z,48.50
2017-11-13T15:10:27.105Z,48.30
2017-11-13T15:12:56.291Z,48.20
2017-11-13T15:15:24.751Z,47.90
2017-11-13T15:17:52.798Z,48.20
2017-11-13T15:20:21.611Z,48.10
2017-11-13T15:22:49.674Z,48.60
2017-11-13T15:25:17.735Z,49.10
2017-11-13T15:27:45.776Z,49.30
2017-11-13T15:30:13.839Z,49.50
2017-11-13T15:32:41.900Z,50.20
2017-11-13T15:35:09.950Z,51.80
2017-11-13T15:37:38.762Z,53.10
2017-11-13T15:40:06.824Z,52.50
2017-11-13T15:42:35.634Z,54.10
2017-11-13T15:45:03.707Z,54.00
2017-11-13T15:47:31.758Z,55.50
2017-11-13T15:49:59.798Z,55.10
2017-11-13T15:52:27.860Z,55.90
2017-11-13T15:54:57.037Z,56.30
2017-11-13T15:57:25.111Z,57.10
2017-11-13T15:59:53.159Z,57.70
2017-11-13T16:02:21.202Z,57.70
2017-11-13T16:04:50.766Z,57.70
2017-11-13T16:07:18.818Z,58.70
2017-11-13T16:09:46.871Z,62.90
2017-11-13T16:12:14.961Z,62.20
2017-11-13T16:14:43.018Z,65.80
2017-11-13T16:17:11.078Z,68.70
2017-11-13T16:19:39.177Z,66.50
2017-11-13T16:22:07.230Z,65.10
2017-11-13T16:24:35.279Z,65.20
2017-11-13T16:27:04.090Z,65.70
2017-11-13T16:29:32.150Z,64.60
2017-11-13T16:32:01.066Z,65.50
2017-11-13T16:34:29.879Z,68.00
2017-11-13T16:36:58.330Z,66.50
2017-11-13T16:39:26.377Z,66.30
2017-11-13T16:41:55.199Z,66.20
2017-11-13T16:44:23.266Z,66.00
2017-11-13T16:46:51.343Z,66.10
2017-11-13T16:49:19.382Z,66.60
2017-11-13T16:51:47.834Z,68.20
2017-11-13T16:54:15.888Z,67.30
2017-11-13T16:56:44.322Z,67.20
2017-11-13T16:59:12.386Z,68.10
2017-11-13T17:01:40.831Z,68.00
2017-11-13T17:04:08.883Z,69.90
2017-11-13T17:06:38.461Z,70.00
2017-11-13T17:09:07.250Z,70.80
2017-11-13T17:11:35.311Z,70.30
2017-11-13T17:14:04.861Z,71.80
2017-11-13T17:16:32.923Z,69.70
2017-11-13T17:19:00.995Z,69.40
2017-11-13T17:21:29.072Z,69.60
2017-11-13T17:23:57.110Z,69.30
2017-11-13T17:26:25.549Z,69.70
2017-11-13T17:28:53.596Z,70.20
2017-11-13T17:31:21.647Z,71.40
2017-11-13T17:33:49.706Z,71.40
2017-11-13T17:36:18.150Z,71.30
2017-11-13T17:38:46.979Z,72.30
2017-11-13T17:43:44.351Z,72.70
2017-11-13T17:46:12.395Z,74.00
2017-11-13T17:48:41.974Z,74.60
2017-11-13T17:51:10.023Z,74.70
2017-11-13T17:53:38.462Z,76.00
2017-11-13T17:58:36.230Z,76.60
2017-11-13T18:01:04.285Z,76.90
2017-11-13T18:03:32.354Z,76.80
2017-11-13T18:06:01.179Z,76.80
2017-11-13T18:08:29.994Z,78.00
2017-11-13T18:10:59.186Z,77.80
2017-11-13T18:13:27.233Z,77.70
2017-11-13T18:18:25.759Z,76.90
2017-11-13T18:20:53.819Z,75.30
2017-11-13T18:23:21.899Z,74.50
2017-11-13T18:25:50.001Z,74.40
2017-11-13T18:28:18.775Z,75.60
2017-11-13T18:30:46.865Z,74.50
2017-11-13T18:33:15.674Z,73.80
2017-11-13T18:35:43.748Z,74.00
2017-11-13T18:38:11.896Z,75.10
2017-11-13T18:40:40.662Z,74.00
2017-11-13T18:43:08.715Z,73.10
2017-11-13T18:45:37.545Z,73.90
2017-11-13T18:48:05.999Z,73.90
2017-11-13T18:50:34.077Z,73.40
2017-11-13T18:53:02.160Z,73.60
2017-11-13T18:55:30.247Z,73.90
2017-11-13T18:57:58.274Z,74.00
2017-11-13T19:00:27.090Z,74.50
2017-11-13T19:02:55.898Z,73.50
2017-11-13T19:05:23.980Z,74.70
2017-11-13T19:07:52.795Z,73.80
2017-11-13T19:10:21.612Z,74.30
2017-11-13T19:12:50.074Z,73.30
2017-11-13T19:15:18.891Z,74.20
2017-11-13T19:17:46.948Z,74.10
2017-11-13T19:20:15.014Z,73.40
2017-11-13T19:22:43.826Z,73.30
2017-11-13T19:25:13.025Z,73.70
2017-11-13T19:27:41.087Z,73.90
2017-11-13T19:30:09.134Z,74.40
2017-11-13T19:32:37.655Z,75.40
2017-11-13T19:35:06.427Z,76.60
2017-11-13T19:37:34.492Z,76.30
2017-11-13T19:40:03.323Z,75.80
2017-11-13T19:42:31.372Z,74.90
2017-11-13T19:45:00.203Z,76.70
2017-11-13T19:47:29.785Z,76.80
2017-11-13T19:49:57.857Z,77.30
2017-11-13T19:52:25.885Z,78.60
2017-11-13T19:54:54.721Z,78.60
2017-11-13T19:57:22.763Z,78.40
2017-11-13T19:59:50.820Z,79.40
2017-11-13T20:02:19.294Z,79.20
2017-11-13T20:04:47.742Z,77.30
2017-11-13T20:07:15.795Z,77.60
2017-11-13T20:09:43.967Z,79.00
2017-11-13T20:12:12.743Z,80.60
2017-11-13T20:14:40.850Z,80.70
2017-11-13T20:17:10.419Z,81.30
2017-11-13T20:19:39.627Z,81.30
2017-11-13T20:22:07.687Z,82.80
2017-11-13T20:24:35.727Z,83.20
2017-11-13T20:27:04.569Z,83.40
2017-11-13T20:29:32.609Z,82.70
2017-11-13T20:32:00.654Z,83.10
2017-11-13T20:34:29.858Z,83.50
2017-11-13T20:36:58.683Z,84.10
2017-11-13T20:39:27.501Z,84.80
2017-11-13T20:41:55.566Z,84.10
2017-11-13T20:44:24.394Z,83.80
2017-11-13T20:51:52.594Z,84.00
2017-11-13T20:54:21.421Z,85.40
2017-11-13T20:56:49.475Z,84.70
2017-11-13T20:59:17.935Z,84.40
2017-11-13T21:01:46.758Z,84.80
2017-11-13T21:04:14.801Z,84.60
2017-11-13T21:06:44.006Z,84.50
2017-11-13T21:09:12.819Z,85.00
2017-11-13T21:11:41.645Z,84.70
2017-11-13T21:14:09.693Z,84.40
2017-11-13T21:16:43.618Z,84.80
2017-11-13T21:19:12.063Z,85.20
2017-11-13T21:21:40.114Z,84.40
2017-11-13T21:26:37.503Z,85.10
2017-11-13T21:29:05.571Z,84.70
2017-11-13T21:31:34.381Z,85.30
2017-11-13T21:34:02.447Z,86.10
2017-11-13T21:36:30.489Z,86.80
2017-11-13T21:38:59.304Z,87.00
2017-11-13T21:41:27.769Z,87.80
2017-11-13T21:43:56.585Z,86.40
2017-11-13T21:46:24.629Z,87.50
2017-11-13T21:48:53.086Z,87.40
2017-11-13T21:51:21.134Z,86.40
2017-11-13T21:53:49.200Z,87.00
2017-11-13T21:56:17.246Z,87.20
2017-11-13T21:58:45.351Z,87.00
2017-11-13T22:01:13.402Z,88.00
2017-11-13T22:03:42.602Z,88.20
2017-11-13T22:06:10.658Z,87.50
2017-11-13T22:08:38.734Z,88.30
2017-11-13T22:11:07.577Z,88.50
2017-11-13T22:13:35.618Z,88.00
2017-11-13T22:16:03.682Z,87.50
2017-11-13T22:18:31.728Z,86.60
2017-11-13T22:21:00.554Z,87.20
2017-11-13T22:23:29.381Z,88.20
2017-11-13T22:25:58.562Z,87.50
2017-11-13T22:28:26.626Z,87.10
2017-11-13T22:30:55.071Z,87.40
2017-11-13T22:33:23.146Z,87.90
2017-11-13T22:35:51.226Z,87.80
2017-11-13T22:38:19.278Z,88.40
2017-11-13T22:40:47.352Z,89.10
2017-11-13T22:43:15.810Z,88.40
2017-11-13T22:45:44.638Z,88.70
2017-11-13T22:48:12.706Z,88.50
2017-11-13T22:50:40.757Z,88.80
2017-11-13T22:53:08.839Z,89.20
2017-11-13T22:55:36.911Z,89.00
2017-11-13T23:00:34.300Z,90.00
2017-11-13T23:03:03.498Z,89.80
2017-11-13T23:05:31.541Z,89.80
2017-11-13T23:07:59.606Z,89.50
2017-11-13T23:10:28.422Z,89.70
2017-11-13T23:12:56.490Z,89.70
2017-11-13T23:15:24.534Z,90.10
2017-11-13T23:17:53.367Z,90.40
2017-11-13T23:20:21.426Z,90.40
2017-11-13T23:22:49.482Z,90.60
2017-11-13T23:25:17.530Z,90.10
2017-11-13T23:27:46.383Z,90.50
2017-11-13T23:30:14.443Z,90.60
2017-11-13T23:32:42.510Z,90.50
2017-11-13T23:35:10.558Z,90.40
2017-11-13T23:37:38.611Z,90.60
2017-11-13T23:40:07.444Z,90.50
2017-11-13T23:42:36.630Z,90.70
2017-11-13T23:45:04.697Z,90.50
2017-11-13T23:47:32.744Z,90.40
2017-11-13T23:50:01.594Z,90.60
2017-11-13T23:52:30.038Z,90.30
2017-11-13T23:54:58.091Z,90.00
2017-11-13T23:57:26.571Z,90.30
2017-11-13T23:59:56.138Z,90.10
